Terminal Aerodrome Forecast
Issued by NWS

Home | Current Version | Previous Version | Text Only | Print | Product List | Glossary On
Versions: 1 2 3 4 5 6 7 8 9 10 11 12 13 14 15 16 17 18
000
FTUS43 KOAX 251400 AAA
TAFSNY
TAF AMD
KSNY 251414Z 2514/2612 35015G25KT P6SM BKN250
     FM251700 01017KT P6SM SCT100
     FM252000 12012G22KT P6SM SCT070
     FM260200 16009KT P6SM SCT070=

USA.gov is the U.S. government's official web portal to all federal, state and local government web resources and services.